Time;durP1;ratioP1;P1;durP2;ratioP2;P2;SDS_P1;SDS_P2;PMS_P1;PMS_P2;Temp;Humidity;BMP_temperature;BMP_pressure;BME280_temperature;BME280_humidity;BME280_pressure;Samples;Min_cycle;Max_cycle;Signal;HPM_P1;HPM_P2
2022/08/27 00:00:13;;;;;;;4.90;2.97;;;;;;;;;;20879746;28;20718;-75
2022/08/27 00:10:18;;;;;;;4.40;3.45;;;;;;;;;;20897195;28;20317;-75
2022/08/27 00:20:21;;;;;;;3.97;3.30;;;;;;;;;;20871633;28;20253;-75
2022/08/27 00:30:23;;;;;;;4.07;3.47;;;;;;;;;;20897358;28;20224;-75
2022/08/27 00:40:24;;;;;;;4.20;3.38;;;;;;;;;;20894826;28;20293;-77
2022/08/27 00:50:37;;;;;;;4.63;3.50;;;;;;;;;;20897460;28;20611;-76
2022/08/27 01:00:39;;;;;;;5.07;3.78;;;;;;;;;;20894734;28;20607;-75
2022/08/27 01:10:41;;;;;;;5.03;3.70;;;;;;;;;;20904734;28;20318;-76
2022/08/27 01:21:01;;;;;;;4.93;3.92;;;;;;;;;;20909669;28;20210;-76
2022/08/27 01:31:07;;;;;;;5.85;4.25;;;;;;;;;;20908499;28;20221;-75
2022/08/27 01:41:09;;;;;;;6.65;3.90;;;;;;;;;;20907812;28;20361;-76
2022/08/27 01:51:11;;;;;;;5.47;3.90;;;;;;;;;;20923097;28;20234;-76
2022/08/27 02:01:15;;;;;;;5.28;3.80;;;24.10;99.90;;;;;;20906459;28;20235;-75
2022/08/27 02:11:17;;;;;;;4.53;3.65;;;;;;;;;;20905353;28;20288;-76
2022/08/27 02:21:19;;;;;;;5.28;4.10;;;;;;;;;;20905343;28;20228;-75
2022/08/27 02:31:21;;;;;;;5.22;4.07;;;;;;;;;;20904469;28;20282;-76
2022/08/27 02:41:23;;;;;;;4.22;3.20;;;;;;;;;;20903924;28;20764;-76
2022/08/27 02:51:25;;;;;;;4.32;3.22;;;;;;;;;;20884938;28;20221;-76
2022/08/27 03:01:26;;;;;;;4.68;2.92;;;;;;;;;;20903410;28;20860;-76
2022/08/27 03:11:28;;;;;;;4.68;3.15;;;;;;;;;;20903824;28;20208;-76
2022/08/27 03:21:30;;;;;;;4.88;3.13;;;;;;;;;;20885077;28;20222;-75
2022/08/27 03:31:32;;;;;;;4.95;2.72;;;;;;;;;;20901053;28;20652;-76
2022/08/27 03:41:34;;;;;;;6.80;3.20;;;;;;;;;;20897902;28;20210;-76
2022/08/27 03:51:38;;;;;;;3.70;2.80;;;;;;;;;;20900420;28;20215;-75
2022/08/27 04:01:40;;;;;;;4.05;3.17;;;;;;;;;;20900623;28;20718;-76
2022/08/27 04:11:42;;;;;;;4.70;2.97;;;;;;;;;;20898217;28;20216;-75
2022/08/27 04:21:44;;;;;;;4.68;2.95;;;;;;;;;;20897824;28;20282;-75
2022/08/27 04:31:46;;;;;;;3.47;3.00;;;;;;;;;;20864080;28;20211;-75
2022/08/27 04:41:51;;;;;;;3.75;2.50;;;23.90;99.90;;;;;;20902403;28;20220;-75
2022/08/27 04:51:54;;;;;;;4.32;2.97;;;;;;;;;;20912509;28;20300;-75
2022/08/27 05:01:55;;;;;;;5.15;3.55;;;;;;;;;;20914266;28;20208;-75
2022/08/27 05:11:58;;;;;;;4.25;2.88;;;;;;;;;;20913516;28;20638;-75
2022/08/27 05:21:59;;;;;;;3.55;2.97;;;;;;;;;;20912709;28;20693;-75
2022/08/27 05:32:01;;;;;;;5.78;3.30;;;;;;;;;;20893404;28;20212;-75
2022/08/27 05:42:03;;;;;;;3.65;2.72;;;;;;;;;;20910747;28;20215;-75
2022/08/27 05:52:10;;;;;;;4.15;2.67;;;;;;;;;;20923121;22;20229;-73
2022/08/27 06:02:12;;;;;;;4.22;3.22;;;;;;;;;;20969991;28;20860;-73
2022/08/27 06:12:13;;;;;;;3.97;3.10;;;;;;;;;;20982972;28;20682;-73
2022/08/27 06:22:15;;;;;;;8.77;3.50;;;24.70;99.90;;;;;;20955362;28;20220;-73
2022/08/27 06:32:17;;;;;;;3.85;2.80;;;;;;;;;;20934848;28;20214;-73
2022/08/27 06:42:18;;;;;;;4.68;2.83;;;;;;;;;;20910137;28;20255;-70
2022/08/27 06:52:25;;;;;;;3.92;3.25;;;;;;;;;;20902761;28;20230;-71
2022/08/27 07:02:27;;;;;;;4.45;3.28;;;;;;;;;;20899954;28;20259;-71
2022/08/27 07:12:29;;;;;;;5.55;3.10;;;;;;;;;;20899538;28;20220;-71
2022/08/27 07:22:30;;;;;;;7.75;3.42;;;;;;;;;;20900478;28;20692;-71
2022/08/27 07:32:32;;;;;;;5.75;3.40;;;;;;;;;;20899352;28;20599;-72
2022/08/27 07:52:54;;;;;;;6.32;4.13;;;;;;;;;;20899404;28;20242;-74
2022/08/27 08:02:56;;;;;;;4.25;3.30;;;;;;;;;;20897054;28;20226;-69
2022/08/27 08:12:58;;;;;;;4.45;3.70;;;;;;;;;;20898015;28;20567;-72
2022/08/27 08:23:00;;;;;;;4.03;3.00;;;;;;;;;;20914541;28;20275;-72
2022/08/27 08:33:02;;;;;;;5.40;3.97;;;;;;;;;;20914250;28;20564;-76
2022/08/27 08:43:05;;;;;;;3.72;2.72;;;;;;;;;;20913230;28;20221;-72
2022/08/27 08:53:07;;;;;;;5.68;3.60;;;;;;;;;;20910917;28;20843;-72
2022/08/27 09:03:11;;;;;;;5.07;3.13;;;;;;;;;;20907807;28;20221;-72
2022/08/27 09:13:34;;;;;;;3.30;2.70;;;;;;;;;;20951074;28;20248;-72
2022/08/27 09:23:36;;;;;;;4.95;2.17;;;;;;;;;;20986981;28;20270;-72
2022/08/27 09:33:37;;;;;;;5.28;2.25;;;;;;;;;;20907964;28;20626;-72
2022/08/27 09:43:42;;;;;;;5.20;2.20;;;;;;;;;;20898356;28;20225;-74
2022/08/27 09:54:10;;;;;;;3.83;2.03;;;24.20;99.90;;;;;;20944965;28;20232;-74
2022/08/27 10:04:13;;;;;;;4.93;2.22;;;;;;;;;;20898564;28;20262;-75
2022/08/27 10:14:31;;;;;;;3.40;2.38;;;24.10;99.90;;;;;;20895524;28;20289;-74
2022/08/27 10:25:18;;;;;;;3.33;2.20;;;22.80;99.90;;;;;;20894724;28;20271;-73
2022/08/27 10:35:32;;;;;;;3.40;2.25;;;24.00;99.90;;;;;;20752437;28;20219;-74
2022/08/27 10:45:34;;;;;;;3.33;1.95;;;;;;;;;;20888002;28;20212;-74
2022/08/27 10:55:44;;;;;;;2.67;2.05;;;;;;;;;;20894737;28;20269;-74
2022/08/27 11:05:48;;;;;;;2.67;1.75;;;24.10;99.90;;;;;;20896911;28;20623;-74
2022/08/27 11:15:53;;;;;;;3.28;1.92;;;24.10;99.90;;;;;;20900737;28;20626;-74
2022/08/27 11:26:00;;;;;;;2.28;1.70;;;24.10;99.90;;;;;;20899127;28;20275;-74
2022/08/27 11:36:02;;;;;;;4.63;2.22;;;;;;;;;;20899263;28;20212;-72
2022/08/27 11:46:07;;;;;;;2.88;2.10;;;24.20;99.90;;;;;;20920379;28;20225;-72
2022/08/27 11:56:38;;;;;;;2.80;1.80;;;;;;;;;;20895829;22;20238;-81
2022/08/27 12:06:48;;;;;;;3.53;1.98;;;24.40;99.90;;;;;;20816106;28;20237;-81
2022/08/27 12:17:02;;;;;;;3.17;2.00;;;;;;;;;;20818000;28;20261;-81
2022/08/27 12:27:19;;;;;;;3.33;1.90;;;24.40;99.90;;;;;;20857931;28;20629;-81
2022/08/27 12:37:26;;;;;;;3.83;2.33;;;24.50;99.90;;;;;;20819733;28;20283;-81
2022/08/27 12:47:28;;;;;;;2.28;1.70;;;;;;;;;;20810786;28;20238;-81
2022/08/27 12:57:35;;;;;;;3.38;2.20;;;;;;;;;;20819043;28;20209;-81
2022/08/27 13:07:42;;;;;;;2.95;1.98;;;;;;;;;;20831619;28;20690;-81
2022/08/27 13:17:45;;;;;;;4.35;2.05;;;;;;;;;;20825566;28;20226;-83
2022/08/27 13:27:58;;;;;;;4.60;2.05;;;;;;;;;;20843582;28;20238;-82
2022/08/27 13:38:29;;;;;;;3.60;2.50;;;;;;;;;;20813177;28;20226;-84
2022/08/27 13:48:32;;;;;;;2.30;1.60;;;;;;;;;;20827727;28;20228;-83
2022/08/27 13:58:34;;;;;;;2.30;1.50;;;;;;;;;;20796160;28;20308;-82
2022/08/27 14:08:36;;;;;;;3.92;1.98;;;;;;;;;;20859311;28;20230;-82
2022/08/27 14:18:38;;;;;;;3.08;1.65;;;;;;;;;;20821427;28;20217;-82
2022/08/27 14:28:41;;;;;;;2.47;1.30;;;;;;;;;;20803996;28;20225;-82
2022/08/27 14:38:45;;;;;;;1.92;1.50;;;;;;;;;;20809502;28;21041;-81
2022/08/27 14:48:46;;;;;;;2.58;1.73;;;;;;;;;;20826303;28;20250;-82
2022/08/27 14:58:48;;;;;;;2.38;1.52;;;;;;;;;;20790105;28;20233;-82
2022/08/27 15:08:52;;;;;;;2.08;1.50;;;;;;;;;;20809925;28;20333;-81
2022/08/27 15:18:54;;;;;;;1.98;1.50;;;;;;;;;;20802175;28;20212;-81
2022/08/27 15:28:56;;;;;;;2.83;1.63;;;;;;;;;;20814373;28;20223;-82
2022/08/27 15:38:58;;;;;;;2.10;1.38;;;;;;;;;;20832240;28;20233;-81
2022/08/27 15:49:01;;;;;;;2.85;1.65;;;;;;;;;;20772509;28;20214;-81
2022/08/27 15:59:03;;;;;;;4.13;1.65;;;;;;;;;;20769496;28;20273;-82
2022/08/27 16:09:04;;;;;;;2.50;1.30;;;;;;;;;;20770785;28;20206;-82
2022/08/27 16:19:08;;;;;;;2.50;1.60;;;;;;;;;;20790438;28;20257;-82
2022/08/27 16:29:09;;;;;;;2.80;1.80;;;;;;;;;;20805539;28;20210;-82
2022/08/27 16:39:11;;;;;;;7.82;1.65;;;;;;;;;;20813493;28;20279;-81
2022/08/27 16:59:34;;;;;;;1.92;1.50;;;;;;;;;;20821359;28;20229;-82
2022/08/27 17:09:37;;;;;;;3.20;1.70;;;;;;;;;;20840096;28;20211;-82
2022/08/27 17:19:38;;;;;;;2.53;1.52;;;;;;;;;;20803491;28;20469;-82
2022/08/27 17:29:40;;;;;;;2.88;1.65;;;;;;;;;;20819119;28;20575;-82
2022/08/27 17:39:42;;;;;;;2.35;1.50;;;;;;;;;;20818293;28;20229;-82
2022/08/27 17:49:44;;;;;;;2.65;1.50;;;;;;;;;;20799311;28;20214;-81
2022/08/27 17:59:46;;;;;;;1.98;1.52;;;;;;;;;;20798238;28;20713;-81
2022/08/27 18:09:49;;;;;;;1.95;1.30;;;;;;;;;;20850012;28;20588;-82
2022/08/27 18:19:51;;;;;;;2.17;1.52;;;;;;;;;;20835125;28;20216;-82
2022/08/27 18:29:54;;;;;;;3.58;1.55;;;;;;;;;;20839970;28;20269;-81
2022/08/27 18:39:56;;;;;;;2.13;1.55;;;;;;;;;;20836467;28;20294;-81
2022/08/27 18:50:10;;;;;;;2.78;1.60;;;;;;;;;;20835840;28;20569;-82
2022/08/27 19:00:13;;;;;;;2.17;1.50;;;;;;;;;;20834000;28;20225;-82
2022/08/27 19:10:15;;;;;;;2.30;1.85;;;;;;;;;;20832546;28;20328;-82
2022/08/27 19:20:18;;;;;;;2.17;1.27;;;;;;;;;;20837446;28;20729;-82
2022/08/27 19:30:20;;;;;;;2.50;1.80;;;;;;;;;;20838836;28;20278;-82
2022/08/27 19:40:22;;;;;;;2.50;1.88;;;;;;;;;;20827854;28;20549;-82
2022/08/27 19:50:24;;;;;;;1.77;1.40;;;;;;;;;;20818050;28;20217;-83
2022/08/27 20:00:26;;;;;;;2.00;1.40;;;;;;;;;;20821859;28;20226;-85
2022/08/27 20:10:29;;;;;;;1.77;1.23;;;;;;;;;;20804093;28;20222;-86
2022/08/27 20:20:31;;;;;;;1.85;1.40;;;22.80;99.90;;;;;;20792705;28;20707;-84
2022/08/27 20:30:33;;;;;;;1.98;1.60;;;23.40;99.90;;;;;;20789600;28;20655;-82
2022/08/27 20:40:35;;;;;;;3.85;1.80;;;;;;;;;;20797483;28;20770;-82
2022/08/27 20:50:36;;;;;;;1.98;1.40;;;;;;;;;;20806344;28;20291;-82
2022/08/27 21:00:40;;;;;;;3.05;1.48;;;23.40;99.90;;;;;;20773467;28;20264;-82
2022/08/27 21:10:49;;;;;;;2.80;1.63;;;23.30;99.90;;;;;;20870499;28;20230;-82
2022/08/27 21:20:51;;;;;;;2.90;1.13;;;;;;;;;;20884708;28;20299;-82
2022/08/27 21:30:52;;;;;;;2.88;1.67;;;;;;;;;;20908494;28;20276;-84
2022/08/27 21:40:55;;;;;;;1.55;1.05;;;;;;;;;;20873529;28;20222;-85
2022/08/27 21:50:57;;;;;;;2.17;1.23;;;;;;;;;;20836461;28;20222;-82
2022/08/27 22:01:00;;;;;;;1.90;1.30;;;;;;;;;;20839944;28;20236;-82
2022/08/27 22:11:02;;;;;;;1.88;1.20;;;22.30;99.90;;;;;;20854360;28;20217;-83
2022/08/27 22:21:05;;;;;;;3.53;1.27;;;;;;;;;;20837841;28;20271;-83
2022/08/27 22:31:06;;;;;;;1.83;1.30;;;21.80;99.90;;;;;;20858979;28;20208;-82
2022/08/27 22:41:08;;;;;;;1.40;0.88;;;22.10;99.90;;;;;;20848370;28;20230;-82
2022/08/27 22:51:10;;;;;;;3.47;1.20;;;;;;;;;;20834630;28;20201;-83
2022/08/27 23:01:12;;;;;;;1.30;0.90;;;;;;;;;;20834020;28;20225;-83
2022/08/27 23:11:14;;;;;;;1.50;0.80;;;;;;;;;;20816402;28;20251;-83
2022/08/27 23:21:16;;;;;;;2.38;1.00;;;;;;;;;;20838391;28;20237;-82
2022/08/27 23:31:18;;;;;;;1.83;0.88;;;;;;;;;;20837421;28;20227;-82
2022/08/27 23:41:20;;;;;;;0.98;0.70;;;;;;;;;;20798603;28;20233;-83
2022/08/27 23:51:21;;;;;;;1.48;1.10;;;;;;;;;;20829200;28;20252;-84
